createdAt,value
2023-03-24T00:01:13.034Z,3.38
2023-03-24T00:03:49.066Z,3.33
2023-03-24T00:06:26.472Z,3.22
2023-03-24T00:09:00.624Z,3.17
2023-03-24T00:11:36.181Z,3.45
2023-03-24T00:14:12.061Z,3.13
2023-03-24T00:16:43.728Z,3.28
2023-03-24T00:19:15.820Z,3.30
2023-03-24T00:21:47.582Z,3.15
2023-03-24T00:24:20.166Z,3.40
2023-03-24T00:26:52.121Z,3.50
2023-03-24T00:29:25.565Z,3.17
2023-03-24T00:31:57.246Z,3.03
2023-03-24T00:34:28.942Z,3.55
2023-03-24T00:37:00.617Z,3.50
2023-03-24T00:39:33.046Z,3.70
2023-03-24T00:42:04.740Z,3.30
2023-03-24T00:44:37.906Z,3.58
2023-03-24T00:47:11.095Z,3.65
2023-03-24T00:49:42.960Z,3.47
2023-03-24T00:52:23.787Z,3.03
2023-03-24T00:54:58.275Z,3.65
2023-03-24T00:57:34.821Z,3.20
2023-03-24T01:00:17.001Z,3.70
2023-03-24T01:02:54.128Z,3.60
2023-03-24T01:05:30.780Z,3.10
2023-03-24T01:08:03.723Z,3.25
2023-03-24T01:10:42.597Z,3.35
2023-03-24T01:13:14.446Z,3.78
2023-03-24T01:15:46.202Z,3.38
2023-03-24T01:18:18.627Z,3.47
2023-03-24T01:20:50.799Z,3.25
2023-03-24T01:23:25.796Z,3.05
2023-03-24T01:25:57.529Z,3.55
2023-03-24T01:28:32.263Z,3.47
2023-03-24T01:31:04.106Z,3.28
2023-03-24T01:33:37.260Z,3.50
2023-03-24T01:36:09.193Z,3.50
2023-03-24T01:38:41.033Z,3.60
2023-03-24T01:41:12.694Z,3.42
2023-03-24T01:43:44.887Z,3.33
2023-03-24T01:46:21.832Z,3.35
2023-03-24T01:49:02.577Z,3.28
2023-03-24T01:51:42.084Z,3.50
2023-03-24T01:54:27.661Z,3.20
2023-03-24T01:57:14.218Z,3.65
2023-03-24T02:02:43.173Z,3.13
2023-03-24T02:05:17.700Z,3.13
2023-03-24T02:08:13.721Z,3.40
2023-03-24T02:10:46.762Z,3.20
2023-03-24T02:13:19.123Z,3.30
2023-03-24T02:16:27.170Z,2.85
2023-03-24T02:19:25.216Z,3.10
2023-03-24T02:22:06.347Z,3.63
2023-03-24T02:24:43.986Z,2.78
2023-03-24T02:27:57.206Z,3.08
2023-03-24T02:30:56.701Z,3.03
2023-03-24T02:33:43.503Z,3.20
2023-03-24T02:36:24.428Z,3.78
2023-03-24T02:39:28.873Z,3.10
2023-03-24T02:42:25.211Z,3.17
2023-03-24T02:45:18.487Z,2.78
2023-03-24T02:47:52.977Z,3.55
2023-03-24T02:50:27.619Z,2.70
2023-03-24T02:53:23.057Z,5.40
2023-03-24T02:56:44.564Z,2.70
2023-03-24T02:59:37.557Z,2.78
2023-03-24T03:02:33.170Z,2.80
2023-03-24T03:05:14.948Z,3.13
2023-03-24T03:07:50.126Z,2.75
2023-03-24T03:10:25.561Z,2.60
2023-03-24T03:13:01.524Z,2.45
2023-03-24T03:15:42.925Z,3.20
2023-03-24T03:18:27.823Z,2.58
2023-03-24T03:21:08.896Z,2.83
2023-03-24T03:23:47.846Z,2.58
2023-03-24T03:26:24.166Z,2.83
2023-03-24T03:29:01.796Z,2.67
2023-03-24T03:31:49.621Z,3.30
2023-03-24T03:34:37.572Z,2.70
2023-03-24T03:37:51.307Z,2.85
2023-03-24T03:40:51.422Z,3.20
2023-03-24T03:43:28.082Z,2.60
2023-03-24T03:46:01.284Z,2.72
2023-03-24T03:48:40.598Z,2.53
2023-03-24T03:51:14.856Z,2.45
2023-03-24T03:54:01.120Z,2.70
2023-03-24T03:56:36.516Z,2.50
2023-03-24T03:59:38.519Z,2.50
2023-03-24T04:05:10.446Z,2.50
2023-03-24T04:08:32.024Z,2.47
2023-03-24T04:11:41.779Z,2.40
2023-03-24T04:14:47.036Z,2.63
2023-03-24T04:18:05.551Z,2.40
2023-03-24T04:21:02.294Z,2.28
2023-03-24T04:23:50.480Z,2.22
2023-03-24T04:26:41.329Z,2.40
2023-03-24T04:29:34.534Z,2.55
2023-03-24T04:32:21.354Z,4.45
2023-03-24T04:35:02.805Z,2.40
2023-03-24T04:38:09.339Z,2.58
2023-03-24T04:40:49.568Z,2.15
2023-03-24T04:43:26.981Z,2.33
2023-03-24T04:46:00.762Z,2.30
2023-03-24T04:48:41.174Z,2.22
2023-03-24T04:51:19.530Z,2.20
2023-03-24T04:54:02.076Z,2.40
2023-03-24T04:56:43.769Z,2.17
2023-03-24T04:59:22.054Z,2.70
2023-03-24T05:01:54.400Z,2.15
2023-03-24T05:04:49.104Z,2.00
2023-03-24T05:07:29.357Z,2.15
2023-03-24T05:10:06.492Z,2.17
2023-03-24T05:12:44.046Z,2.28
2023-03-24T05:15:18.730Z,2.13
2023-03-24T05:17:56.837Z,1.88
2023-03-24T05:20:33.547Z,1.98
2023-03-24T05:23:15.127Z,2.10
2023-03-24T05:25:51.268Z,2.30
2023-03-24T05:28:26.111Z,2.17
2023-03-24T05:31:02.362Z,2.33
2023-03-24T05:33:49.750Z,2.03
2023-03-24T05:39:01.446Z,2.40
2023-03-24T05:41:47.285Z,2.22
2023-03-24T05:44:18.953Z,2.25
2023-03-24T05:47:07.587Z,2.33
2023-03-24T05:49:39.341Z,2.22
2023-03-24T05:52:11.908Z,2.30
2023-03-24T05:54:47.153Z,1.73
2023-03-24T05:57:23.293Z,2.38
2023-03-24T06:00:17.108Z,2.40
2023-03-24T06:03:02.003Z,2.15
2023-03-24T06:05:45.889Z,2.30
2023-03-24T06:08:18.721Z,2.30
2023-03-24T06:10:53.456Z,2.33
2023-03-24T06:13:30.158Z,2.33
2023-03-24T06:16:05.218Z,2.58
2023-03-24T06:18:42.791Z,2.63
2023-03-24T06:21:35.139Z,2.58
2023-03-24T06:24:07.339Z,2.20
2023-03-24T06:26:42.201Z,2.38
2023-03-24T06:31:51.155Z,2.67
2023-03-24T06:34:25.090Z,2.20
2023-03-24T06:37:15.647Z,2.20
2023-03-24T06:42:21.370Z,2.20
2023-03-24T06:44:53.473Z,2.13
2023-03-24T06:47:25.265Z,2.38
2023-03-24T06:49:57.275Z,2.65
2023-03-24T06:52:28.968Z,2.33
2023-03-24T06:55:01.241Z,2.20
2023-03-24T06:57:34.893Z,2.87
2023-03-24T07:00:25.804Z,2.58
2023-03-24T07:03:08.669Z,2.33
2023-03-24T07:05:45.202Z,2.70
2023-03-24T07:08:36.495Z,2.70
2023-03-24T07:11:10.201Z,2.33
2023-03-24T07:13:45.556Z,2.58
2023-03-24T07:16:17.862Z,2.67
2023-03-24T07:18:51.666Z,2.72
2023-03-24T07:21:23.508Z,3.10
2023-03-24T07:23:56.235Z,2.33
2023-03-24T07:26:35.054Z,2.35
2023-03-24T07:29:15.385Z,2.60
2023-03-24T07:32:19.604Z,2.35
2023-03-24T07:34:51.496Z,2.20
2023-03-24T07:37:24.488Z,2.05
2023-03-24T07:39:56.234Z,2.13
2023-03-24T07:42:28.960Z,2.20
2023-03-24T07:45:20.850Z,2.10
2023-03-24T07:47:52.789Z,2.03
2023-03-24T07:50:24.601Z,2.53
2023-03-24T07:52:59.374Z,1.92
2023-03-24T07:55:32.128Z,2.20
2023-03-24T07:58:14.528Z,2.63
2023-03-24T08:03:44.656Z,1.95
2023-03-24T08:06:22.763Z,2.40
2023-03-24T08:08:56.038Z,2.10
2023-03-24T08:11:27.922Z,2.60
2023-03-24T08:13:59.926Z,2.28
2023-03-24T08:16:31.894Z,2.45
2023-03-24T08:19:03.700Z,2.10
2023-03-24T08:21:35.566Z,2.03
2023-03-24T08:24:07.539Z,1.98
2023-03-24T08:26:40.171Z,2.28
2023-03-24T08:29:12.010Z,2.20
2023-03-24T08:31:43.757Z,2.10
2023-03-24T08:34:15.615Z,2.88
2023-03-24T08:36:47.397Z,2.17
2023-03-24T08:39:20.787Z,3.25
2023-03-24T08:41:54.942Z,2.03
2023-03-24T08:44:26.683Z,2.15
2023-03-24T08:47:00.769Z,1.95
2023-03-24T08:49:32.649Z,2.25
2023-03-24T08:52:04.398Z,2.47
2023-03-24T08:54:36.577Z,2.40
2023-03-24T08:57:08.292Z,2.17
2023-03-24T08:59:40.265Z,2.15
2023-03-24T09:02:12.635Z,2.00
2023-03-24T09:04:45.933Z,1.98
2023-03-24T09:07:17.822Z,2.47
2023-03-24T09:09:49.549Z,1.88
2023-03-24T09:12:21.306Z,2.58
2023-03-24T09:14:53.465Z,2.10
2023-03-24T09:17:25.385Z,2.17
2023-03-24T09:19:57.321Z,2.20
2023-03-24T09:22:29.003Z,2.45
2023-03-24T09:25:00.746Z,2.00
2023-03-24T09:27:33.068Z,1.92
2023-03-24T09:30:09.596Z,2.10
2023-03-24T09:32:41.869Z,2.20
2023-03-24T09:35:14.539Z,2.42
2023-03-24T09:37:46.762Z,2.13
2023-03-24T09:40:23.771Z,2.10
2023-03-24T09:43:04.514Z,1.92
2023-03-24T09:45:44.992Z,2.20
2023-03-24T09:48:39.469Z,2.35
2023-03-24T09:51:22.767Z,2.22
2023-03-24T09:54:00.656Z,1.90
2023-03-24T09:56:36.278Z,2.40
2023-03-24T09:59:17.877Z,2.05
2023-03-24T10:01:49.754Z,2.45
2023-03-24T10:04:27.280Z,2.30
2023-03-24T10:07:28.112Z,2.28
2023-03-24T10:10:01.475Z,1.80
2023-03-24T10:12:44.696Z,2.23
2023-03-24T10:15:38.092Z,1.90
2023-03-24T10:18:13.112Z,2.25
2023-03-24T10:20:55.042Z,2.13
2023-03-24T10:23:35.875Z,1.80
2023-03-24T10:26:27.650Z,2.08
2023-03-24T10:29:23.233Z,1.70
2023-03-24T10:32:02.761Z,1.77
2023-03-24T10:34:35.262Z,1.48
2023-03-24T10:37:07.424Z,2.55
2023-03-24T10:39:44.778Z,1.40
2023-03-24T10:42:21.843Z,1.80
2023-03-24T10:44:56.542Z,1.50
2023-03-24T10:47:32.833Z,1.60
2023-03-24T10:50:12.791Z,1.60
2023-03-24T10:52:48.888Z,1.80
2023-03-24T10:55:23.884Z,1.90
2023-03-24T10:58:00.601Z,1.50
2023-03-24T11:00:32.716Z,1.45
2023-03-24T11:03:11.857Z,1.77
2023-03-24T11:05:45.385Z,1.50
2023-03-24T11:08:17.469Z,1.95
2023-03-24T11:10:49.450Z,1.65
2023-03-24T11:13:26.000Z,1.60
2023-03-24T11:16:17.135Z,1.63
2023-03-24T11:19:01.927Z,1.60
2023-03-24T11:21:37.004Z,1.60
2023-03-24T11:24:15.816Z,2.08
2023-03-24T11:26:56.776Z,1.60
2023-03-24T11:29:39.903Z,2.17
2023-03-24T11:32:25.649Z,1.60
2023-03-24T11:35:07.851Z,2.10
2023-03-24T11:37:41.343Z,2.05
2023-03-24T11:40:12.976Z,1.92
2023-03-24T11:43:00.773Z,1.73
2023-03-24T11:45:43.136Z,1.92
2023-03-24T11:48:30.205Z,2.10
2023-03-24T11:51:04.315Z,2.22
2023-03-24T11:53:44.666Z,1.80
2023-03-24T11:56:34.507Z,2.47
2023-03-24T11:59:32.685Z,2.30
2023-03-24T12:02:13.664Z,1.90
2023-03-24T12:04:57.139Z,2.10
2023-03-24T12:07:59.067Z,2.38
2023-03-24T12:10:51.130Z,2.13
2023-03-24T12:13:35.178Z,1.80
2023-03-24T12:16:31.423Z,2.27
2023-03-24T12:19:28.026Z,1.88
2023-03-24T12:22:15.530Z,1.92
2023-03-24T12:24:54.956Z,3.60
2023-03-24T12:27:27.260Z,2.25
2023-03-24T12:30:18.685Z,2.00
2023-03-24T12:33:23.582Z,1.95
2023-03-24T12:36:18.844Z,1.90
2023-03-24T12:41:45.977Z,1.58
2023-03-24T12:44:36.421Z,2.30
2023-03-24T12:47:38.348Z,2.72
2023-03-24T12:50:18.641Z,2.60
2023-03-24T12:53:23.056Z,1.63
2023-03-24T12:56:02.107Z,1.95
2023-03-24T12:58:53.939Z,1.90
2023-03-24T13:01:51.611Z,2.05
2023-03-24T13:04:33.756Z,2.15
2023-03-24T13:07:11.928Z,1.73
2023-03-24T13:10:06.784Z,1.63
2023-03-24T13:12:46.156Z,1.85
2023-03-24T13:15:33.531Z,1.40
2023-03-24T13:18:11.325Z,1.50
2023-03-24T13:21:01.219Z,1.45
2023-03-24T13:23:37.837Z,1.60
2023-03-24T13:26:34.137Z,2.03
2023-03-24T13:32:05.821Z,1.40
2023-03-24T13:34:43.172Z,1.60
2023-03-24T13:37:32.254Z,1.65
2023-03-24T13:40:28.433Z,1.90
2023-03-24T13:43:07.278Z,3.00
2023-03-24T13:46:13.589Z,1.50
2023-03-24T13:48:50.493Z,1.45
2023-03-24T13:51:27.361Z,1.38
2023-03-24T13:54:07.028Z,1.60
2023-03-24T13:57:14.366Z,1.30
2023-03-24T14:00:14.326Z,1.48
2023-03-24T14:02:54.149Z,1.35
2023-03-24T14:05:59.666Z,1.20
2023-03-24T14:08:52.511Z,1.48
2023-03-24T14:11:38.291Z,1.50
2023-03-24T14:14:16.052Z,1.40
2023-03-24T14:17:06.116Z,1.50
2023-03-24T14:19:44.659Z,1.30
2023-03-24T14:22:30.432Z,1.08
2023-03-24T14:25:02.190Z,1.10
2023-03-24T14:27:38.025Z,1.10
2023-03-24T14:30:31.917Z,1.75
2023-03-24T14:33:04.537Z,1.10
2023-03-24T14:35:42.049Z,1.25
2023-03-24T14:38:16.485Z,1.20
2023-03-24T14:40:51.918Z,0.73
2023-03-24T14:43:43.797Z,1.00
2023-03-24T14:46:21.369Z,1.23
2023-03-24T14:49:23.544Z,1.20
2023-03-24T14:52:13.775Z,0.80
2023-03-24T14:54:54.342Z,1.10
2023-03-24T14:57:43.819Z,1.10
2023-03-24T15:00:29.752Z,1.10
2023-03-24T15:03:11.423Z,1.20
2023-03-24T15:05:43.474Z,1.00
2023-03-24T15:08:17.849Z,1.50
2023-03-24T15:11:04.463Z,1.10
2023-03-24T15:13:49.314Z,1.13
2023-03-24T15:16:33.640Z,1.30
2023-03-24T15:19:23.409Z,1.20
2023-03-24T15:22:04.275Z,1.17
2023-03-24T15:24:42.281Z,1.20
2023-03-24T15:27:16.965Z,1.23
2023-03-24T15:29:56.062Z,1.10
2023-03-24T15:32:31.779Z,1.20
2023-03-24T15:35:06.704Z,1.40
2023-03-24T15:40:31.593Z,1.52
2023-03-24T15:43:06.816Z,1.48
2023-03-24T15:45:51.024Z,1.77
2023-03-24T15:48:27.401Z,1.48
2023-03-24T15:51:00.836Z,1.63
2023-03-24T15:53:56.261Z,1.42
2023-03-24T15:56:36.342Z,1.60
2023-03-24T15:59:11.794Z,1.33
2023-03-24T16:01:45.268Z,1.40
2023-03-24T16:04:20.706Z,1.60
2023-03-24T16:06:54.391Z,1.42
2023-03-24T16:09:37.850Z,1.35
2023-03-24T16:12:12.565Z,1.27
2023-03-24T16:14:44.259Z,1.70
2023-03-24T16:17:15.953Z,1.48
2023-03-24T16:19:47.717Z,1.55
2023-03-24T16:22:19.417Z,2.38
2023-03-24T16:24:51.208Z,1.52
2023-03-24T16:27:22.875Z,1.65
2023-03-24T16:29:55.852Z,1.40
2023-03-24T16:32:27.588Z,1.40
2023-03-24T16:34:59.291Z,1.60
2023-03-24T16:37:31.705Z,1.40
2023-03-24T16:40:06.286Z,1.30
2023-03-24T16:42:38.058Z,1.55
2023-03-24T16:45:10.224Z,1.67
2023-03-24T16:47:41.984Z,1.80
2023-03-24T16:50:34.619Z,1.60
2023-03-24T16:53:08.785Z,1.73
2023-03-24T16:55:41.681Z,1.70
2023-03-24T16:58:16.316Z,1.60
2023-03-24T17:00:49.220Z,1.73
2023-03-24T17:03:23.584Z,1.70
2023-03-24T17:05:56.820Z,1.70
2023-03-24T17:08:28.614Z,1.40
2023-03-24T17:11:01.628Z,1.85
2023-03-24T17:13:33.312Z,1.20
2023-03-24T17:16:09.254Z,1.20
2023-03-24T17:18:41.292Z,1.40
2023-03-24T17:21:16.730Z,1.40
2023-03-24T17:23:55.053Z,1.30
2023-03-24T17:26:26.882Z,1.17
2023-03-24T17:28:58.619Z,1.30
2023-03-24T17:31:30.886Z,1.30
2023-03-24T17:34:15.122Z,1.30
2023-03-24T17:36:53.006Z,1.40
2023-03-24T17:39:26.701Z,1.40
2023-03-24T17:42:01.324Z,1.50
2023-03-24T17:47:05.634Z,1.77
2023-03-24T17:49:37.540Z,1.45
2023-03-24T17:52:09.278Z,1.30
2023-03-24T17:54:41.148Z,1.52
2023-03-24T17:57:12.877Z,2.55
2023-03-24T17:59:44.659Z,1.50
2023-03-24T18:02:17.799Z,1.48
2023-03-24T18:04:49.588Z,1.77
2023-03-24T18:07:21.364Z,2.00
2023-03-24T18:09:53.066Z,1.50
2023-03-24T18:12:26.001Z,1.83
2023-03-24T18:14:57.784Z,1.80
2023-03-24T18:17:29.526Z,2.00
2023-03-24T18:20:09.921Z,2.10
2023-03-24T18:22:41.601Z,2.05
2023-03-24T18:25:14.147Z,2.30
2023-03-24T18:27:45.930Z,2.38
2023-03-24T18:30:17.641Z,1.98
2023-03-24T18:32:50.547Z,1.90
2023-03-24T18:35:22.563Z,1.85
2023-03-24T18:37:55.173Z,1.90
2023-03-24T18:40:29.402Z,1.70
2023-03-24T18:43:01.655Z,1.90
2023-03-24T18:45:33.319Z,2.03
2023-03-24T18:48:05.360Z,1.90
2023-03-24T18:50:42.575Z,1.65
2023-03-24T18:53:14.564Z,1.52
2023-03-24T18:55:49.321Z,1.60
2023-03-24T18:58:21.193Z,1.60
2023-03-24T19:00:55.456Z,1.40
2023-03-24T19:03:27.353Z,1.45
2023-03-24T19:06:06.298Z,1.30
2023-03-24T19:08:41.035Z,1.30
2023-03-24T19:11:14.403Z,1.58
2023-03-24T19:13:47.268Z,1.60
2023-03-24T19:16:20.688Z,1.50
2023-03-24T19:18:52.830Z,1.60
2023-03-24T19:21:25.573Z,1.80
2023-03-24T19:23:57.293Z,1.30
2023-03-24T19:26:29.015Z,1.70
2023-03-24T19:29:03.170Z,1.40
2023-03-24T19:31:35.215Z,1.45
2023-03-24T19:34:07.040Z,1.80
2023-03-24T19:36:41.725Z,1.40
2023-03-24T19:39:17.628Z,1.50
2023-03-24T19:41:49.430Z,1.38
2023-03-24T19:44:22.544Z,1.50
2023-03-24T19:46:54.249Z,1.60
2023-03-24T19:49:25.974Z,1.58
2023-03-24T19:51:58.356Z,1.90
2023-03-24T19:54:30.048Z,1.48
2023-03-24T19:57:02.168Z,1.58
2023-03-24T19:59:34.884Z,1.80
2023-03-24T20:02:06.627Z,1.92
2023-03-24T20:04:38.314Z,1.80
2023-03-24T20:07:10.583Z,1.65
2023-03-24T20:09:42.425Z,1.92
2023-03-24T20:12:14.119Z,1.60
2023-03-24T20:14:45.874Z,1.90
2023-03-24T20:17:19.818Z,2.70
2023-03-24T20:19:51.923Z,1.92
2023-03-24T20:22:23.733Z,1.98
2023-03-24T20:24:55.884Z,2.13
2023-03-24T20:27:30.906Z,1.70
2023-03-24T20:30:03.456Z,2.00
2023-03-24T20:32:38.816Z,2.30
2023-03-24T20:35:11.254Z,3.83
2023-03-24T20:37:43.134Z,2.03
2023-03-24T20:40:14.932Z,1.98
2023-03-24T20:42:46.618Z,1.90
2023-03-24T20:45:18.348Z,2.20
2023-03-24T20:47:50.336Z,1.92
2023-03-24T20:50:22.082Z,1.80
2023-03-24T20:52:53.795Z,2.40
2023-03-24T20:55:26.012Z,2.00
2023-03-24T20:57:57.815Z,2.10
2023-03-24T21:00:29.820Z,2.95
2023-03-24T21:03:07.573Z,2.00
2023-03-24T21:05:39.543Z,2.10
2023-03-24T21:08:11.251Z,2.00
2023-03-24T21:10:43.078Z,2.20
2023-03-24T21:13:16.811Z,1.90
2023-03-24T21:15:49.001Z,2.30
2023-03-24T21:18:21.213Z,2.17
2023-03-24T21:20:55.224Z,2.25
2023-03-24T21:23:26.936Z,2.25
2023-03-24T21:25:58.685Z,2.25
2023-03-24T21:28:31.038Z,2.50
2023-03-24T21:31:15.838Z,3.47
2023-03-24T21:33:47.695Z,5.55
2023-03-24T21:36:20.820Z,2.22
2023-03-24T21:38:54.154Z,1.75
2023-03-24T21:41:26.043Z,1.90
2023-03-24T21:44:00.656Z,2.05
2023-03-24T21:46:32.893Z,2.05
2023-03-24T21:49:11.043Z,2.58
2023-03-24T21:51:42.879Z,1.90
2023-03-24T21:54:15.140Z,2.28
2023-03-24T21:56:47.999Z,2.20
2023-03-24T21:59:20.111Z,1.80
2023-03-24T22:01:54.692Z,2.00
2023-03-24T22:07:06.377Z,2.22
2023-03-24T22:09:38.164Z,2.08
2023-03-24T22:12:09.844Z,2.40
2023-03-24T22:14:41.672Z,2.10
2023-03-24T22:17:13.402Z,2.20
2023-03-24T22:19:45.080Z,3.05
2023-03-24T22:22:16.874Z,2.53
2023-03-24T22:24:48.703Z,2.72
2023-03-24T22:27:20.952Z,2.28
2023-03-24T22:29:52.615Z,2.45
2023-03-24T22:32:24.297Z,2.20
2023-03-24T22:34:56.027Z,2.10
2023-03-24T22:37:28.994Z,2.65
2023-03-24T22:40:00.637Z,2.28
2023-03-24T22:42:32.391Z,2.13
2023-03-24T22:45:04.741Z,2.13
2023-03-24T22:47:36.512Z,2.00
2023-03-24T22:50:09.610Z,2.15
2023-03-24T22:52:41.334Z,2.08
2023-03-24T22:55:13.063Z,2.35
2023-03-24T22:57:47.790Z,2.08
2023-03-24T23:00:23.703Z,2.20
2023-03-24T23:02:55.364Z,2.03
2023-03-24T23:05:27.134Z,2.03
2023-03-24T23:07:59.661Z,1.90
2023-03-24T23:10:31.417Z,2.08
2023-03-24T23:13:04.254Z,1.90
2023-03-24T23:15:37.835Z,1.90
2023-03-24T23:18:09.843Z,2.10
2023-03-24T23:20:42.768Z,2.10
2023-03-24T23:23:15.256Z,1.95
2023-03-24T23:25:48.605Z,2.10
2023-03-24T23:28:20.606Z,2.15
2023-03-24T23:30:53.693Z,2.38
2023-03-24T23:33:25.696Z,2.03
2023-03-24T23:35:59.514Z,2.13
2023-03-24T23:38:31.600Z,2.10
2023-03-24T23:41:06.012Z,2.45
2023-03-24T23:43:39.819Z,2.67
2023-03-24T23:46:11.610Z,2.10
2023-03-24T23:48:43.306Z,2.30
2023-03-24T23:51:15.488Z,2.22
2023-03-24T23:53:47.160Z,2.40
2023-03-24T23:56:22.749Z,2.42
2023-03-24T23:58:54.390Z,2.60
